Time;durP1;ratioP1;P1;durP2;ratioP2;P2;SDS_P1;SDS_P2;PMS_P1;PMS_P2;Temp;Humidity;BMP_temperature;BMP_pressure;BME280_temperature;BME280_humidity;BME280_pressure;Samples;Min_cycle;Max_cycle;Signal;HPM_P1;HPM_P2
2022/11/09 00:01:26;;;;;;;23.30;15.90;;;15.40;1.00;;;;;;5111154;28;20031;-60
2022/11/09 00:03:59;;;;;;;20.90;14.77;;;15.30;1.00;;;;;;5102867;28;20031;-61
2022/11/09 00:06:26;;;;;;;19.40;15.52;;;15.30;1.00;;;;;;5105738;28;20116;-61
2022/11/09 00:08:52;;;;;;;20.98;16.13;;;15.30;1.00;;;;;;5073220;28;20051;-61
2022/11/09 00:11:18;;;;;;;23.42;16.38;;;15.40;1.00;;;;;;5099501;28;20035;-61
2022/11/09 00:13:44;;;;;;;20.80;15.90;;;15.40;1.00;;;;;;5111809;28;20023;-61
2022/11/09 00:16:13;;;;;;;21.70;17.23;;;15.40;1.00;;;;;;5107124;28;20028;-61
2022/11/09 00:18:40;;;;;;;19.83;15.93;;;15.40;1.00;;;;;;5090121;28;20431;-61
2022/11/09 00:21:06;;;;;;;23.13;17.45;;;15.40;1.00;;;;;;5110253;28;20040;-61
2022/11/09 00:23:32;;;;;;;21.17;16.25;;;15.30;1.00;;;;;;5115265;28;20020;-61
2022/11/09 00:26:06;;;;;;;21.85;16.83;;;15.30;1.00;;;;;;5112441;28;20030;-60
2022/11/09 00:28:32;;;;;;;19.63;16.38;;;15.30;1.00;;;;;;5097950;28;20032;-61
2022/11/09 00:31:01;;;;;;;20.05;16.25;;;15.40;1.00;;;;;;5110835;27;20050;-61
2022/11/09 00:33:27;;;;;;;19.25;15.15;;;15.40;1.00;;;;;;5096338;28;20489;-62
2022/11/09 00:35:53;;;;;;;21.15;15.07;;;15.40;1.00;;;;;;5102783;28;20027;-61
2022/11/09 00:38:19;;;;;;;20.55;14.90;;;15.40;1.00;;;;;;5115696;28;20032;-61
2022/11/09 00:40:45;;;;;;;24.27;16.35;;;15.40;1.00;;;;;;5114546;28;20031;-61
2022/11/09 00:43:11;;;;;;;19.23;13.48;;;15.30;1.00;;;;;;5096885;28;20030;-61
2022/11/09 00:45:36;;;;;;;19.20;12.65;;;15.30;1.00;;;;;;5115198;28;20024;-61
2022/11/09 00:48:02;;;;;;;19.05;11.40;;;15.20;1.00;;;;;;5112125;28;20463;-61
2022/11/09 00:50:28;;;;;;;17.27;11.85;;;15.30;1.00;;;;;;5100094;28;20040;-61
2022/11/09 00:52:54;;;;;;;18.30;13.07;;;15.20;1.00;;;;;;5114525;28;20420;-61
2022/11/09 00:55:20;;;;;;;18.40;11.35;;;15.30;1.00;;;;;;5114808;28;20085;-60
2022/11/09 00:57:50;;;;;;;16.67;11.75;;;15.20;1.00;;;;;;5112384;28;20133;-61
2022/11/09 01:00:20;;;;;;;16.83;12.82;;;15.20;1.00;;;;;;5114649;28;20028;-61
2022/11/09 01:02:46;;;;;;;15.90;11.13;;;15.20;1.00;;;;;;5113634;28;20092;-61
2022/11/09 01:05:12;;;;;;;18.08;13.63;;;15.20;1.00;;;;;;5112016;28;20028;-61
2022/11/09 01:07:38;;;;;;;15.85;12.30;;;15.20;1.00;;;;;;5113590;28;20031;-61
2022/11/09 01:10:05;;;;;;;16.05;12.43;;;15.20;1.00;;;;;;5114627;28;20043;-61
2022/11/09 01:12:31;;;;;;;19.27;12.73;;;15.20;1.00;;;;;;5113838;28;20053;-61
2022/11/09 01:14:56;;;;;;;19.50;12.23;;;15.20;1.00;;;;;;5114700;28;20177;-61
2022/11/09 01:17:22;;;;;;;16.02;13.50;;;15.20;1.00;;;;;;5111336;28;20482;-61
2022/11/09 01:19:48;;;;;;;19.45;13.07;;;15.20;1.00;;;;;;5094394;28;20032;-61
2022/11/09 01:22:14;;;;;;;15.75;13.07;;;15.20;1.00;;;;;;5086846;28;20039;-61
2022/11/09 01:24:39;;;;;;;17.50;13.20;;;15.30;1.00;;;;;;5108335;28;20035;-61
2022/11/09 01:27:05;;;;;;;15.35;12.27;;;15.20;1.00;;;;;;5113868;28;20436;-61
2022/11/09 01:29:30;;;;;;;19.33;13.60;;;15.30;1.00;;;;;;5108153;28;20036;-61
2022/11/09 01:31:56;;;;;;;19.33;13.40;;;15.30;1.00;;;;;;5103662;27;20054;-61
2022/11/09 01:34:22;;;;;;;17.73;13.25;;;15.30;1.00;;;;;;5096029;28;20043;-61
2022/11/09 01:36:50;;;;;;;18.13;13.18;;;15.30;1.00;;;;;;5085482;28;20127;-61
2022/11/09 01:39:18;;;;;;;15.57;13.43;;;15.30;1.00;;;;;;5114209;28;20431;-61
2022/11/09 01:41:44;;;;;;;19.27;12.88;;;15.30;1.00;;;;;;5113449;27;20032;-61
2022/11/09 01:44:18;;;;;;;16.85;13.05;;;15.30;1.00;;;;;;5113467;27;20058;-61
2022/11/09 01:46:47;;;;;;;17.33;13.77;;;15.30;1.00;;;;;;5112849;28;20035;-61
2022/11/09 01:49:39;;;;;;;15.32;12.65;;;15.30;1.00;;;;;;5112561;28;20067;-61
2022/11/09 01:52:16;;;;;;;19.38;12.82;;;15.30;1.00;;;;;;5111311;28;20024;-61
2022/11/09 01:54:46;;;;;;;18.00;12.60;;;15.30;1.00;;;;;;5110051;28;20024;-61
2022/11/09 01:57:23;;;;;;;15.10;11.95;;;15.30;1.00;;;;;;5094691;28;20439;-61
2022/11/09 01:59:54;;;;;;;14.88;11.48;;;15.30;1.00;;;;;;5113675;28;20436;-61
2022/11/09 02:02:20;;;;;;;14.13;11.00;;;15.30;1.00;;;;;;5112622;28;20027;-61
2022/11/09 02:04:55;;;;;;;15.48;11.82;;;15.30;1.00;;;;;;5107408;28;20384;-61
2022/11/09 02:07:22;;;;;;;14.38;11.10;;;15.30;1.00;;;;;;5113601;28;20107;-61
2022/11/09 02:10:00;;;;;;;15.98;11.35;;;15.30;1.00;;;;;;5094248;28;20035;-61
2022/11/09 02:12:28;;;;;;;15.65;11.13;;;15.30;1.00;;;;;;5112945;28;20028;-60
2022/11/09 02:14:56;;;;;;;15.32;11.68;;;15.30;1.00;;;;;;5111861;28;20118;-61
2022/11/09 02:17:23;;;;;;;16.40;11.68;;;15.30;1.00;;;;;;5113020;28;20094;-61
2022/11/09 02:19:49;;;;;;;14.27;11.32;;;15.30;1.00;;;;;;5111833;28;20056;-61
2022/11/09 02:22:15;;;;;;;18.23;11.80;;;15.30;1.00;;;;;;5109332;28;20074;-61
2022/11/09 02:24:41;;;;;;;16.65;12.52;;;15.30;1.00;;;;;;5094767;28;20376;-61
2022/11/09 02:27:07;;;;;;;13.90;11.80;;;15.30;1.00;;;;;;5110993;28;20110;-61
2022/11/09 02:29:39;;;;;;;14.85;11.93;;;15.30;1.00;;;;;;5109344;28;20040;-61
2022/11/09 02:32:27;;;;;;;15.85;12.20;;;15.30;1.00;;;;;;5112018;28;20024;-61
2022/11/09 02:34:52;;;;;;;13.52;11.60;;;15.30;1.00;;;;;;5111213;28;20110;-61
2022/11/09 02:37:32;;;;;;;17.20;12.30;;;15.30;1.00;;;;;;5110804;27;20459;-60
2022/11/09 02:40:00;;;;;;;16.92;11.90;;;15.30;1.00;;;;;;5105678;28;20026;-61
2022/11/09 02:42:26;;;;;;;16.73;12.23;;;15.30;1.00;;;;;;5111359;28;20062;-61
2022/11/09 02:44:57;;;;;;;17.30;12.20;;;15.30;1.00;;;;;;5111984;28;20426;-60
2022/11/09 02:47:23;;;;;;;16.77;12.20;;;15.30;1.00;;;;;;5108159;27;20034;-61
2022/11/09 02:49:49;;;;;;;17.25;12.30;;;15.30;1.00;;;;;;5109192;28;20046;-61
2022/11/09 02:52:15;;;;;;;19.13;14.02;;;15.20;1.00;;;;;;5109988;28;20031;-61
2022/11/09 02:54:41;;;;;;;21.80;13.43;;;15.10;1.00;;;;;;5109635;27;20052;-61
2022/11/09 02:57:08;;;;;;;16.65;13.15;;;15.10;1.00;;;;;;5110867;27;20048;-61
2022/11/09 02:59:34;;;;;;;21.88;15.23;;;15.00;1.00;;;;;;5115824;27;20030;-61
2022/11/09 03:01:59;;;;;;;17.48;14.80;;;14.90;1.00;;;;;;5109171;28;20020;-61
2022/11/09 03:04:25;;;;;;;22.65;15.68;;;14.80;1.00;;;;;;5118656;27;20123;-62
2022/11/09 03:06:51;;;;;;;19.15;14.70;;;14.80;1.00;;;;;;5110727;28;20051;-61
2022/11/09 03:09:18;;;;;;;18.70;15.30;;;14.90;1.00;;;;;;5108495;28;21800;-61
2022/11/09 03:11:44;;;;;;;23.38;16.88;;;14.80;1.00;;;;;;5092607;28;20031;-61
2022/11/09 03:14:10;;;;;;;21.38;16.80;;;14.80;1.00;;;;;;5110140;27;20024;-61
2022/11/09 03:16:38;;;;;;;17.80;15.07;;;14.80;1.00;;;;;;5110377;28;20032;-61
2022/11/09 03:19:04;;;;;;;19.73;16.70;;;14.80;1.00;;;;;;5111811;28;20031;-61
2022/11/09 03:21:29;;;;;;;22.45;17.27;;;14.90;1.00;;;;;;5110796;28;20031;-61
2022/11/09 03:23:55;;;;;;;20.60;18.08;;;14.90;1.00;;;;;;5092073;28;20031;-61
2022/11/09 03:26:22;;;;;;;18.95;16.65;;;14.80;1.00;;;;;;5112625;27;20031;-61
2022/11/09 03:28:48;;;;;;;21.35;16.75;;;14.80;1.00;;;;;;5103946;28;20023;-61
2022/11/09 03:31:14;;;;;;;25.63;17.50;;;14.70;1.00;;;;;;5107560;28;20041;-61
2022/11/09 03:33:40;;;;;;;20.77;17.92;;;14.80;1.00;;;;;;5110201;28;20028;-61
2022/11/09 03:36:07;;;;;;;19.17;16.42;;;14.90;1.00;;;;;;5111091;28;20073;-61
2022/11/09 03:38:34;;;;;;;21.38;16.83;;;14.90;1.00;;;;;;5107324;28;20353;-61
2022/11/09 03:41:01;;;;;;;24.27;17.33;;;14.90;1.00;;;;;;5110543;28;20141;-61
2022/11/09 03:43:28;;;;;;;22.25;16.75;;;14.90;1.00;;;;;;5106248;28;20016;-61
2022/11/09 03:45:55;;;;;;;20.30;16.70;;;14.90;1.00;;;;;;5110407;28;20093;-61
2022/11/09 03:48:21;;;;;;;20.50;16.65;;;14.90;1.00;;;;;;5092181;28;20456;-61
2022/11/09 03:50:47;;;;;;;21.08;17.50;;;14.90;1.00;;;;;;5107734;28;20051;-61
2022/11/09 03:53:13;;;;;;;21.70;16.30;;;14.90;1.00;;;;;;5109366;28;20024;-61
2022/11/09 03:55:39;;;;;;;19.65;15.63;;;14.90;1.00;;;;;;5108356;28;20332;-60
2022/11/09 03:58:06;;;;;;;21.45;16.40;;;15.00;1.00;;;;;;5112526;28;20058;-61
2022/11/09 04:00:32;;;;;;;23.83;16.63;;;15.00;1.00;;;;;;5112020;28;20511;-61
2022/11/09 04:02:58;;;;;;;21.05;17.20;;;14.90;1.00;;;;;;5118716;27;20028;-61
2022/11/09 04:05:24;;;;;;;22.05;17.92;;;15.00;1.00;;;;;;5114155;28;20028;-61
2022/11/09 04:07:53;;;;;;;23.60;16.98;;;14.90;1.00;;;;;;5114362;28;20023;-61
2022/11/09 04:10:20;;;;;;;23.08;19.00;;;15.00;1.00;;;;;;5103879;28;20039;-61
2022/11/09 04:12:46;;;;;;;22.70;18.38;;;14.90;1.00;;;;;;5120551;27;20373;-61
2022/11/09 04:15:13;;;;;;;20.00;16.75;;;15.00;1.00;;;;;;5114738;28;20340;-61
2022/11/09 04:17:39;;;;;;;20.65;17.77;;;15.00;1.00;;;;;;5114929;27;20038;-61
2022/11/09 04:20:06;;;;;;;27.50;18.85;;;15.00;1.00;;;;;;5114214;27;20050;-61
2022/11/09 04:22:33;;;;;;;21.17;17.25;;;15.00;1.00;;;;;;5114776;27;20126;-60
2022/11/09 04:24:59;;;;;;;19.38;16.88;;;15.00;1.00;;;;;;5104722;28;20390;-61
2022/11/09 04:27:25;;;;;;;21.45;16.13;;;15.00;1.00;;;;;;5096353;28;20115;-61
2022/11/09 04:29:51;;;;;;;21.65;17.50;;;15.00;1.00;;;;;;5114412;27;20480;-61
2022/11/09 04:32:17;;;;;;;26.52;16.83;;;15.00;1.00;;;;;;5121147;27;20027;-61
2022/11/09 04:34:43;;;;;;;22.15;15.93;;;15.00;1.00;;;;;;5112055;28;20039;-61
2022/11/09 04:37:09;;;;;;;23.27;17.15;;;15.00;1.00;;;;;;5106542;28;20031;-61
2022/11/09 04:39:35;;;;;;;19.63;16.98;;;15.00;1.00;;;;;;5113454;28;20034;-61
2022/11/09 04:42:02;;;;;;;20.10;16.27;;;15.00;1.00;;;;;;5116826;27;20027;-61
2022/11/09 04:44:30;;;;;;;18.90;15.77;;;15.00;1.00;;;;;;5113687;28;20119;-61
2022/11/09 04:46:56;;;;;;;24.73;16.88;;;15.00;1.00;;;;;;5115278;27;20036;-61
2022/11/09 04:49:22;;;;;;;20.90;15.90;;;15.00;1.00;;;;;;5112612;27;20038;-61
2022/11/09 04:51:48;;;;;;;18.50;16.40;;;15.00;1.00;;;;;;5109137;27;20031;-62
2022/11/09 04:54:13;;;;;;;20.45;16.20;;;15.00;1.00;;;;;;5114042;27;20036;-61
2022/11/09 04:56:39;;;;;;;23.17;17.17;;;15.00;1.00;;;;;;5110370;27;20052;-61
2022/11/09 04:59:05;;;;;;;18.85;16.48;;;15.00;1.00;;;;;;5111579;28;20032;-61
2022/11/09 05:01:30;;;;;;;18.83;16.73;;;15.00;1.00;;;;;;5119016;27;20489;-61
2022/11/09 05:03:56;;;;;;;20.33;16.77;;;15.00;1.00;;;;;;5111591;28;20046;-61
2022/11/09 05:06:31;;;;;;;22.95;17.67;;;15.00;1.00;;;;;;5111212;27;20437;-61
2022/11/09 05:08:57;;;;;;;;;;;15.00;1.00;;;;;;5114111;28;20054;-61
2022/11/09 05:11:23;;;;;;;21.80;17.77;;;15.00;1.00;;;;;;5113452;27;19915;-61
2022/11/09 05:13:52;;;;;;;22.05;18.27;;;15.00;1.00;;;;;;5111117;28;20024;-61
2022/11/09 05:16:19;;;;;;;22.33;19.10;;;15.00;1.00;;;;;;5109812;28;20023;-61
2022/11/09 05:18:45;;;;;;;20.67;17.10;;;15.00;1.00;;;;;;5111879;27;20036;-61
2022/11/09 05:21:11;;;;;;;20.98;17.65;;;14.90;1.00;;;;;;5118018;27;20048;-61
2022/11/09 05:26:21;;;;;;;22.42;17.85;;;14.90;1.00;;;;;;5103114;28;20043;-61
2022/11/09 05:28:46;;;;;;;20.73;17.05;;;14.80;1.00;;;;;;5107992;28;20023;-61
2022/11/09 05:31:12;;;;;;;18.45;14.18;;;14.90;1.00;;;;;;5115963;27;20381;-61
2022/11/09 05:33:38;;;;;;;18.05;16.13;;;14.90;1.00;;;;;;5113431;27;20122;-61
2022/11/09 05:36:04;;;;;;;20.98;16.77;;;14.90;1.00;;;;;;5114318;28;20020;-61
2022/11/09 05:38:30;;;;;;;20.67;17.27;;;14.90;1.00;;;;;;5108515;28;20028;-61
2022/11/09 05:40:56;;;;;;;21.77;17.17;;;14.90;1.00;;;;;;5116498;27;20030;-61
2022/11/09 05:43:22;;;;;;;22.63;18.15;;;14.90;1.00;;;;;;5121651;27;20027;-62
2022/11/09 05:45:47;;;;;;;21.15;18.83;;;14.90;1.00;;;;;;5112103;28;20073;-61
2022/11/09 05:48:15;;;;;;;20.55;16.75;;;14.90;1.00;;;;;;5114612;27;20035;-61
2022/11/09 05:50:41;;;;;;;21.33;16.80;;;14.90;1.00;;;;;;5110287;28;20494;-61
2022/11/09 05:53:08;;;;;;;21.42;16.20;;;14.90;1.00;;;;;;5112377;28;20019;-61
2022/11/09 05:55:34;;;;;;;18.13;16.08;;;14.90;1.00;;;;;;5122826;27;20114;-60
2022/11/09 05:58:00;;;;;;;18.70;15.98;;;14.90;1.00;;;;;;5114182;28;20063;-61
2022/11/09 06:00:26;;;;;;;18.83;16.23;;;14.80;1.00;;;;;;5110251;27;20027;-61
2022/11/09 06:02:51;;;;;;;17.70;15.75;;;14.90;1.00;;;;;;5112940;27;20027;-61
2022/11/09 06:05:19;;;;;;;18.40;16.15;;;14.80;1.00;;;;;;5111264;28;20112;-61
2022/11/09 06:07:45;;;;;;;17.05;15.10;;;14.90;1.00;;;;;;5114395;27;20020;-61
2022/11/09 06:10:10;;;;;;;19.52;14.45;;;14.90;1.00;;;;;;5111507;28;20397;-61
2022/11/09 06:12:36;;;;;;;19.15;14.57;;;14.80;1.00;;;;;;5115540;27;20466;-61
2022/11/09 06:15:02;;;;;;;16.90;15.07;;;14.80;1.00;;;;;;5109892;27;20080;-61
2022/11/09 06:17:27;;;;;;;18.05;15.02;;;14.80;1.00;;;;;;5110989;28;20434;-61
2022/11/09 06:19:53;;;;;;;23.77;16.27;;;14.90;1.00;;;;;;5108855;28;20036;-61
2022/11/09 06:22:18;;;;;;;21.02;15.10;;;14.80;1.00;;;;;;5110148;28;20031;-61
2022/11/09 06:24:44;;;;;;;22.00;15.32;;;14.90;1.00;;;;;;5113984;27;20066;-61
2022/11/09 06:27:09;;;;;;;17.05;14.45;;;14.90;1.00;;;;;;5086531;28;20043;-62
2022/11/09 06:29:35;;;;;;;17.80;15.52;;;14.80;1.00;;;;;;5104794;28;20036;-61
2022/11/09 06:32:01;;;;;;;22.85;16.92;;;14.90;1.00;;;;;;5103131;27;20501;-61
2022/11/09 06:34:26;;;;;;;19.65;15.32;;;14.90;1.00;;;;;;5107013;28;20131;-61
2022/11/09 06:36:52;;;;;;;20.67;15.82;;;14.90;1.00;;;;;;5107548;28;20030;-61
2022/11/09 06:39:18;;;;;;;22.52;15.68;;;14.90;1.00;;;;;;5109673;27;20384;-61
2022/11/09 06:41:43;;;;;;;20.50;15.65;;;14.90;1.00;;;;;;5106647;28;20112;-61
2022/11/09 06:44:09;;;;;;;22.00;16.73;;;14.90;1.00;;;;;;5110753;27;20024;-60
2022/11/09 06:46:34;;;;;;;21.48;16.42;;;14.90;1.00;;;;;;5121683;27;20343;-61
2022/11/09 06:49:00;;;;;;;19.55;17.17;;;14.90;1.00;;;;;;5103984;28;20032;-61
2022/11/09 06:51:26;;;;;;;23.02;16.15;;;14.90;1.00;;;;;;5109586;28;20198;-61
2022/11/09 06:53:52;;;;;;;20.10;16.90;;;15.00;1.00;;;;;;5100540;28;20020;-61
2022/11/09 06:56:18;;;;;;;24.05;18.60;;;14.90;1.00;;;;;;5111037;28;20105;-61
2022/11/09 06:58:43;;;;;;;21.17;17.52;;;15.00;1.00;;;;;;5108860;28;20031;-61
2022/11/09 07:01:11;;;;;;;23.55;17.10;;;15.00;1.00;;;;;;5087718;28;20026;-61
2022/11/09 07:03:37;;;;;;;24.08;18.00;;;15.00;1.00;;;;;;5111070;28;20056;-61
2022/11/09 07:06:05;;;;;;;23.05;17.40;;;15.00;1.00;;;;;;5111210;28;20034;-61
2022/11/09 07:08:31;;;;;;;20.83;17.13;;;15.00;1.00;;;;;;5111647;28;20081;-61
2022/11/09 07:11:05;;;;;;;19.90;16.45;;;15.10;1.00;;;;;;5100587;28;20036;-61
2022/11/09 07:13:31;;;;;;;;;;;15.00;1.00;;;;;;5100278;28;20032;-61
2022/11/09 07:15:56;;;;;;;19.00;16.83;;;15.00;1.00;;;;;;5100155;28;19908;-61
2022/11/09 07:18:22;;;;;;;24.10;17.50;;;15.00;1.00;;;;;;5113094;27;20138;-63
2022/11/09 07:20:48;;;;;;;23.80;18.33;;;15.10;1.00;;;;;;5103842;27;20112;-61
2022/11/09 07:23:13;;;;;;;21.85;17.80;;;15.10;1.00;;;;;;5096371;28;20082;-61
2022/11/09 07:25:39;;;;;;;22.92;17.15;;;15.10;1.00;;;;;;5105434;28;20024;-61
2022/11/09 07:28:07;;;;;;;25.05;19.02;;;15.10;1.00;;;;;;5105489;28;20400;-61
2022/11/09 07:30:33;;;;;;;22.02;18.67;;;15.10;1.00;;;;;;5100979;28;20031;-61
2022/11/09 07:32:59;;;;;;;24.95;19.35;;;15.10;1.00;;;;;;5099114;28;20358;-61
2022/11/09 07:35:25;;;;;;;19.85;17.75;;;15.10;1.00;;;;;;5106546;28;20030;-49
2022/11/09 07:37:51;;;;;;;19.80;17.58;;;15.00;1.00;;;;;;5096176;28;20035;-55
2022/11/09 07:40:17;;;;;;;24.10;19.05;;;14.80;1.00;;;;;;5097937;28;20036;-61
2022/11/09 07:42:42;;;;;;;22.65;18.38;;;14.80;1.00;;;;;;5103578;28;20024;-58
2022/11/09 07:45:08;;;;;;;43.88;20.83;;;14.80;1.00;;;;;;5107946;28;20459;-62
2022/11/09 07:47:34;;;;;;;23.45;17.20;;;14.90;1.00;;;;;;5107222;28;20069;-64
2022/11/09 07:50:00;;;;;;;25.20;17.65;;;14.90;1.00;;;;;;5108974;28;20540;-65
2022/11/09 07:52:25;;;;;;;20.95;17.33;;;14.90;1.00;;;;;;5109060;28;20039;-69
2022/11/09 07:54:51;;;;;;;22.15;16.25;;;15.00;1.00;;;;;;5111827;28;20027;-71
2022/11/09 07:57:17;;;;;;;22.95;16.60;;;14.90;1.00;;;;;;5109337;28;20123;-70
2022/11/09 07:59:42;;;;;;;19.98;17.52;;;14.80;1.00;;;;;;5111280;28;20043;-68
2022/11/09 08:02:08;;;;;;;21.35;16.83;;;14.80;1.00;;;;;;5109104;28;20024;-66
2022/11/09 08:04:34;;;;;;;23.63;17.27;;;14.80;1.00;;;;;;5110815;28;20377;-72
2022/11/09 08:06:59;;;;;;;23.38;16.88;;;14.80;1.00;;;;;;5105148;28;20071;-73
2022/11/09 08:09:26;;;;;;;28.45;17.17;;;14.90;1.00;;;;;;5103338;28;20028;-69
2022/11/09 08:11:52;;;;;;;21.15;16.10;;;14.80;1.00;;;;;;5109717;28;20035;-63
2022/11/09 08:14:17;;;;;;;21.67;16.60;;;14.80;1.00;;;;;;5111657;28;20024;-64
2022/11/09 08:16:43;;;;;;;22.98;16.98;;;14.90;1.00;;;;;;5108845;28;20361;-68
2022/11/09 08:19:09;;;;;;;21.70;18.02;;;14.80;1.00;;;;;;5111408;28;20419;-65
2022/11/09 08:21:37;;;;;;;22.67;17.40;;;14.90;1.00;;;;;;5110430;28;20096;-63
2022/11/09 08:24:04;;;;;;;22.48;17.80;;;14.90;1.00;;;;;;5108805;28;20035;-69
2022/11/09 08:26:30;;;;;;;23.90;17.70;;;14.90;1.00;;;;;;5106161;28;20031;-65
2022/11/09 08:28:56;;;;;;;20.90;16.60;;;14.90;1.00;;;;;;5091818;28;20024;-72
2022/11/09 08:31:22;;;;;;;19.30;16.67;;;14.90;1.00;;;;;;5110310;28;20127;-68
2022/11/09 08:33:47;;;;;;;23.67;18.10;;;15.00;1.00;;;;;;5110058;28;20031;-72
2022/11/09 08:36:15;;;;;;;23.50;19.08;;;15.00;1.00;;;;;;5108815;28;20124;-63
2022/11/09 08:38:42;;;;;;;23.42;18.85;;;14.90;1.00;;;;;;5109444;28;20394;-67
2022/11/09 08:41:08;;;;;;;25.83;19.65;;;14.90;1.00;;;;;;5090873;28;20500;-66
2022/11/09 08:43:34;;;;;;;25.33;19.38;;;15.00;1.00;;;;;;5107867;28;20035;-67
2022/11/09 08:46:00;;;;;;;24.55;20.17;;;15.00;1.00;;;;;;5101577;28;20031;-72
2022/11/09 08:48:26;;;;;;;25.65;21.65;;;15.00;1.00;;;;;;5117442;27;20023;-72
2022/11/09 08:50:53;;;;;;;26.70;21.05;;;15.00;1.00;;;;;;5122662;27;20416;-73
2022/11/09 08:53:18;;;;;;;26.85;21.60;;;15.00;1.00;;;;;;5115108;28;20318;-59
2022/11/09 08:55:45;;;;;;;24.35;19.73;;;15.00;1.00;;;;;;5113659;28;20058;-51
2022/11/09 08:58:11;;;;;;;27.58;20.75;;;15.00;1.00;;;;;;5114560;28;20095;-63
2022/11/09 09:00:37;;;;;;;27.50;20.40;;;15.10;1.00;;;;;;5112694;28;20055;-68
2022/11/09 09:03:04;;;;;;;28.92;20.45;;;15.00;1.00;;;;;;5114126;28;20027;-65
2022/11/09 09:05:30;;;;;;;29.05;21.42;;;15.10;1.00;;;;;;5111091;28;20023;-66
2022/11/09 09:07:58;;;;;;;25.35;22.23;;;15.10;1.00;;;;;;5114699;28;20456;-71
2022/11/09 09:10:23;;;;;;;24.27;20.23;;;15.10;1.00;;;;;;5102896;28;20035;-74
2022/11/09 09:12:49;;;;;;;27.13;20.73;;;15.00;1.00;;;;;;5085011;28;20028;-69
2022/11/09 09:15:15;;;;;;;23.58;21.08;;;15.10;1.00;;;;;;5101069;27;20043;-69
2022/11/09 09:17:40;;;;;;;23.63;21.08;;;15.10;1.00;;;;;;5090856;28;20016;-67
2022/11/09 09:20:06;;;;;;;28.58;21.85;;;15.00;1.00;;;;;;5106980;28;20019;-68
2022/11/09 09:22:32;;;;;;;23.90;21.50;;;15.10;1.00;;;;;;5106798;28;20016;-66
2022/11/09 09:24:58;;;;;;;26.90;21.98;;;15.10;1.00;;;;;;5087305;28;20354;-74
2022/11/09 09:27:23;;;;;;;36.92;26.05;;;15.10;1.00;;;;;;5110226;28;20016;-70
2022/11/09 09:29:49;;;;;;;31.27;23.23;;;15.10;1.00;;;;;;5100426;28;20046;-76
2022/11/09 09:32:14;;;;;;;27.58;23.40;;;15.10;1.00;;;;;;5109159;28;20036;-63
2022/11/09 09:34:40;;;;;;;27.92;22.48;;;15.10;1.00;;;;;;5102607;28;20024;-69
2022/11/09 09:37:06;;;;;;;29.27;22.75;;;15.10;1.00;;;;;;5099854;28;20150;-74
2022/11/09 09:39:31;;;;;;;27.98;23.20;;;15.00;1.00;;;;;;5106048;28;20088;-75
2022/11/09 09:42:01;;;;;;;25.25;22.75;;;14.90;1.00;;;;;;5111501;28;20168;-66
2022/11/09 09:44:33;;;;;;;25.67;22.95;;;14.90;1.00;;;;;;5113316;28;20455;-70
2022/11/09 09:47:04;;;;;;;43.60;26.25;;;15.00;1.00;;;;;;5111468;28;20050;-51
2022/11/09 09:49:35;;;;;;;32.58;23.42;;;14.90;1.00;;;;;;5110343;27;20073;-55
2022/11/09 09:52:24;;;;;;;33.40;24.05;;;15.00;1.00;;;;;;5101490;27;20087;-63
2022/11/09 09:55:00;;;;;;;36.50;24.27;;;15.00;1.00;;;;;;5104081;27;20047;-60
2022/11/09 09:57:28;;;;;;;31.33;22.80;;;14.90;1.00;;;;;;5103073;28;20039;-69
2022/11/09 09:59:58;;;;;;;33.35;22.23;;;14.90;1.00;;;;;;5105868;28;20038;-65
2022/11/09 10:02:24;;;;;;;34.42;23.45;;;14.80;1.00;;;;;;5107245;28;20070;-64
2022/11/09 10:04:53;;;;;;;35.78;23.50;;;14.80;1.00;;;;;;5093894;27;20058;-61
2022/11/09 10:07:33;;;;;;;31.80;24.13;;;14.60;99.90;;;;;;5101354;28;20121;-62
2022/11/09 10:10:29;;;;;;;29.98;23.17;;;14.60;99.90;;;;;;5106378;28;20031;-62
2022/11/09 10:13:26;;;;;;;30.27;22.33;;;14.60;99.90;;;;;;5106433;28;20071;-56
2022/11/09 10:16:05;;;;;;;25.55;22.65;;;14.60;89.40;;;;;;5100820;27;20055;-61
2022/11/09 10:18:45;;;;;;;28.42;22.63;;;14.60;5.20;;;;;;5109609;28;20546;-69
2022/11/09 10:21:35;;;;;;;25.95;21.58;;;14.50;1.00;;;;;;5110072;28;20073;-57
2022/11/09 10:24:27;;;;;;;31.95;24.42;;;14.50;1.00;;;;;;5098134;28;20108;-60
2022/11/09 10:26:58;;;;;;;27.65;22.90;;;14.50;1.00;;;;;;5100174;27;20024;-57
2022/11/09 10:29:27;;;;;;;26.88;22.73;;;14.60;1.00;;;;;;5105486;28;20042;-67
2022/11/09 10:32:00;;;;;;;25.63;22.42;;;14.50;1.00;;;;;;5096289;27;20061;-70
2022/11/09 10:34:32;;;;;;;26.85;23.67;;;14.50;99.90;;;;;;5102287;28;20024;-73
2022/11/09 10:37:02;;;;;;;26.15;23.48;;;14.50;92.50;;;;;;5106767;28;20034;-72
2022/11/09 10:39:37;;;;;;;29.15;24.48;;;14.50;1.00;;;;;;5105536;28;20020;-71
2022/11/09 10:42:03;;;;;;;28.85;24.98;;;14.50;1.00;;;;;;5100504;28;20032;-70
2022/11/09 10:44:28;;;;;;;27.27;23.65;;;14.50;1.00;;;;;;5104679;28;20429;-80
2022/11/09 10:47:12;;;;;;;26.08;23.30;;;14.50;1.00;;;;;;5112277;28;20067;-70
2022/11/09 10:49:39;;;;;;;25.97;23.13;;;14.40;1.00;;;;;;5109238;28;20085;-74
2022/11/09 10:52:29;;;;;;;25.55;21.83;;;14.50;1.00;;;;;;5111843;28;20321;-75
2022/11/09 10:55:25;;;;;;;27.48;23.63;;;14.50;1.00;;;;;;5110758;27;20035;-70
2022/11/09 10:58:10;;;;;;;;;;;14.50;1.00;;;;;;5107867;28;20458;-71
2022/11/09 11:00:55;;;;;;;28.58;25.55;;;14.40;1.00;;;;;;5108158;28;20009;-62
2022/11/09 11:03:23;;;;;;;28.95;25.95;;;14.50;1.00;;;;;;5103546;28;20107;-73
2022/11/09 11:06:06;;;;;;;28.05;25.15;;;14.60;1.00;;;;;;5111714;28;20036;-69
2022/11/09 11:08:36;;;;;;;29.20;25.73;;;14.60;1.00;;;;;;5110811;28;20457;-74
2022/11/09 11:11:26;;;;;;;28.55;25.65;;;14.60;1.00;;;;;;5099742;28;20055;-72
2022/11/09 11:14:10;;;;;;;29.30;26.10;;;14.70;1.00;;;;;;5097793;28;20404;-70
2022/11/09 11:16:37;;;;;;;29.15;25.92;;;14.70;1.00;;;;;;5112129;28;20032;-70
2022/11/09 11:19:04;;;;;;;30.05;24.33;;;14.80;1.00;;;;;;5111067;28;20032;-67
2022/11/09 11:21:30;;;;;;;29.20;26.05;;;14.80;1.00;;;;;;5109576;28;20089;-69
2022/11/09 11:24:11;;;;;;;27.50;23.42;;;14.80;1.00;;;;;;5109818;28;20038;-66
2022/11/09 11:26:48;;;;;;;26.20;23.58;;;14.90;1.00;;;;;;5104165;28;20031;-61
2022/11/09 11:29:35;;;;;;;28.65;25.73;;;14.60;1.00;;;;;;5107066;28;20031;-59
2022/11/09 11:32:00;;;;;;;26.67;23.88;;;14.60;1.00;;;;;;5112058;28;20093;-60
2022/11/09 11:34:26;;;;;;;27.50;24.50;;;14.80;1.00;;;;;;5105465;28;20024;-60
2022/11/09 11:37:21;;;;;;;26.90;24.10;;;14.90;1.00;;;;;;5112407;28;20024;-60
2022/11/09 11:40:03;;;;;;;27.43;24.60;;;14.80;1.00;;;;;;5112043;28;20024;-60
2022/11/09 11:42:50;;;;;;;28.98;24.10;;;14.80;1.00;;;;;;5099001;28;20028;-59
2022/11/09 11:49:15;;;;;;;25.85;23.08;;;15.00;1.00;;;;;;5048522;28;20989;-62
2022/11/09 11:51:46;;;;;;;76.40;31.38;;;15.10;1.00;;;;;;5046002;28;20037;-61
2022/11/09 11:54:37;;;;;;;32.58;28.00;;;15.10;1.00;;;;;;5062928;28;20025;-61
2022/11/09 11:57:41;;;;;;;31.77;26.92;;;15.10;1.00;;;;;;5047687;28;20053;-61
2022/11/09 12:00:18;;;;;;;28.48;25.40;;;15.00;1.00;;;;;;5048657;28;20027;-61
2022/11/09 12:02:57;;;;;;;31.45;28.15;;;15.10;1.00;;;;;;5048686;28;20029;-61
2022/11/09 12:05:44;;;;;;;30.67;26.17;;;15.10;1.00;;;;;;5048468;28;20100;-60
2022/11/09 12:08:21;;;;;;;28.98;25.85;;;15.10;1.00;;;;;;5048441;28;20073;-61
2022/11/09 12:11:01;;;;;;;29.85;26.58;;;15.00;1.00;;;;;;5048599;28;20026;-61
2022/11/09 12:13:41;;;;;;;31.75;28.45;;;15.00;1.00;;;;;;5048917;28;20025;-61
2022/11/09 12:16:40;;;;;;;30.73;27.60;;;15.10;1.00;;;;;;5033445;28;20488;-61
2022/11/09 12:19:28;;;;;;;30.77;27.48;;;15.10;1.00;;;;;;5048376;28;20107;-61
2022/11/09 12:22:28;;;;;;;29.75;26.65;;;15.10;1.00;;;;;;5048307;28;20021;-61
2022/11/09 12:25:03;;;;;;;30.98;27.50;;;15.00;1.00;;;;;;5036551;28;20103;-61
2022/11/09 12:27:47;;;;;;;32.08;28.50;;;15.10;1.00;;;;;;5048287;28;20053;-61
2022/11/09 12:30:20;;;;;;;29.95;26.48;;;15.10;1.00;;;;;;5046809;28;20068;-61
2022/11/09 12:32:58;;;;;;;31.88;28.42;;;15.00;1.00;;;;;;5048102;28;20025;-61
2022/11/09 12:35:31;;;;;;;39.80;28.90;;;15.10;1.00;;;;;;5048242;28;20025;-61
2022/11/09 12:38:32;;;;;;;40.40;29.35;;;15.00;1.00;;;;;;5048051;28;20036;-61
2022/11/09 12:41:12;;;;;;;45.13;37.38;;;15.10;1.00;;;;;;5046649;28;20355;-63
2022/11/09 12:43:46;;;;;;;30.85;27.58;;;15.10;1.00;;;;;;5046622;28;20125;-60
2022/11/09 12:46:15;;;;;;;33.70;27.45;;;15.00;1.00;;;;;;5038337;28;20057;-61
2022/11/09 12:48:41;;;;;;;34.47;27.95;;;15.00;1.00;;;;;;5048026;28;20057;-61
2022/11/09 12:51:07;;;;;;;37.03;28.85;;;14.90;1.00;;;;;;5049112;28;20059;-61
2022/11/09 12:53:36;;;;;;;32.08;27.17;;;14.90;1.00;;;;;;5048226;28;20025;-61
2022/11/09 12:56:16;;;;;;;38.08;30.27;;;15.00;1.00;;;;;;5048257;28;20025;-61